createdAt,value
2018-11-02T00:00:03.867Z,7.41
2018-11-02T00:00:08.292Z,7.41
2018-11-02T00:00:12.910Z,7.41
2018-11-02T00:00:18.089Z,7.4
2018-11-02T00:00:22.893Z,7.4
2018-11-02T00:00:28.033Z,7.4
2018-11-02T00:00:32.129Z,7.39
2018-11-02T00:00:36.511Z,7.39
2018-11-02T00:00:40.751Z,7.39
2018-11-02T00:00:45.148Z,7.39
2018-11-02T00:00:49.258Z,7.39
2018-11-02T00:00:53.392Z,7.39
2018-11-02T00:00:57.766Z,7.39
2018-11-02T00:01:02.906Z,7.38
2018-11-02T00:01:07.101Z,7.38
2018-11-02T00:01:11.462Z,7.38
2018-11-02T00:01:15.359Z,7.38
2018-11-02T00:01:19.383Z,7.38
2018-11-02T00:01:23.741Z,7.38
2018-11-02T00:01:28.145Z,7.38
2018-11-02T00:01:32.420Z,7.38
2018-11-02T00:01:36.662Z,7.38
2018-11-02T00:01:41.018Z,7.37
2018-11-02T00:01:45.389Z,7.37
2018-11-02T00:01:49.636Z,7.38
2018-11-02T00:01:53.888Z,7.37
2018-11-02T00:01:58.127Z,7.37
2018-11-02T00:02:02.251Z,7.37
2018-11-02T00:02:06.640Z,7.37
2018-11-02T00:02:11.905Z,7.37
2018-11-02T00:02:16.138Z,7.37
2018-11-02T00:02:20.486Z,7.36
2018-11-02T00:02:24.624Z,7.36
2018-11-02T00:02:28.640Z,7.36
2018-11-02T00:02:32.759Z,7.36
2018-11-02T00:02:36.985Z,7.36
2018-11-02T00:02:41.106Z,7.36
2018-11-02T00:02:45.454Z,7.36
2018-11-02T00:02:49.716Z,7.36
2018-11-02T00:02:53.839Z,7.36
2018-11-02T00:02:58.189Z,7.36
2018-11-02T00:03:02.685Z,7.36
2018-11-02T00:03:06.966Z,7.36
2018-11-02T00:03:11.123Z,7.35
2018-11-02T00:03:16.119Z,7.36
2018-11-02T00:03:20.352Z,7.36
2018-11-02T00:03:24.593Z,7.36
2018-11-02T00:03:28.949Z,7.35
2018-11-02T00:03:32.961Z,7.35
2018-11-02T00:03:37.206Z,7.34
2018-11-02T00:03:41.330Z,7.34
2018-11-02T00:03:45.560Z,7.35
2018-11-02T00:03:49.931Z,7.34
2018-11-02T00:03:54.175Z,7.34
2018-11-02T00:03:58.319Z,7.34
2018-11-02T00:04:02.443Z,7.34
2018-11-02T00:04:06.849Z,7.34
2018-11-02T00:04:11.012Z,7.33
2018-11-02T00:04:15.379Z,7.33
2018-11-02T00:04:19.676Z,7.34
2018-11-02T00:04:24.425Z,7.33
2018-11-02T00:04:28.543Z,7.34
2018-11-02T00:04:32.780Z,7.34
2018-11-02T00:04:37.006Z,7.34
2018-11-02T00:04:41.226Z,7.33
2018-11-02T00:04:45.470Z,7.34
2018-11-02T00:04:49.850Z,7.34
2018-11-02T00:04:54.184Z,7.34
2018-11-02T00:04:58.460Z,7.33
2018-11-02T00:05:02.802Z,7.33
2018-11-02T00:05:06.813Z,7.33
2018-11-02T00:05:11.076Z,7.34
2018-11-02T00:05:15.409Z,7.34
2018-11-02T00:05:19.551Z,7.34
2018-11-02T00:05:23.811Z,7.34
2018-11-02T00:05:28.713Z,7.34
2018-11-02T00:05:33.238Z,7.34
2018-11-02T00:05:37.578Z,7.34
2018-11-02T00:05:41.944Z,7.35
2018-11-02T00:05:46.175Z,7.34
2018-11-02T00:05:50.409Z,7.34
2018-11-02T00:05:54.654Z,7.34
2018-11-02T00:05:59.003Z,7.34
2018-11-02T00:06:03.539Z,7.33
2018-11-02T00:06:07.850Z,7.35
2018-11-02T00:06:13.049Z,7.34
2018-11-02T00:06:18.136Z,7.34
2018-11-02T00:06:23.154Z,7.34
2018-11-02T00:06:28.378Z,7.34
2018-11-02T00:06:33.289Z,7.35
2018-11-02T00:06:38.748Z,7.35
2018-11-02T00:06:43.087Z,7.35
2018-11-02T00:06:47.238Z,7.35
2018-11-02T00:06:51.509Z,7.35
2018-11-02T00:06:55.886Z,7.35
2018-11-02T00:07:00.119Z,7.35
2018-11-02T00:07:04.553Z,7.36
2018-11-02T00:07:08.793Z,7.35
2018-11-02T00:07:13.157Z,7.36
2018-11-02T00:07:17.390Z,7.36
2018-11-02T00:07:21.618Z,7.36
2018-11-02T00:07:25.841Z,7.37
2018-11-02T00:07:30.182Z,7.37
2018-11-02T00:07:34.306Z,7.36
2018-11-02T00:07:38.546Z,7.36
2018-11-02T00:07:43.889Z,7.38
2018-11-02T00:07:48.115Z,7.37
2018-11-02T00:07:52.226Z,7.37
2018-11-02T00:07:56.245Z,7.38
2018-11-02T00:08:00.366Z,7.38
2018-11-02T00:08:04.377Z,7.38
2018-11-02T00:08:08.611Z,7.38
2018-11-02T00:08:12.947Z,7.38
2018-11-02T00:08:17.099Z,7.38
2018-11-02T00:08:21.261Z,7.39
2018-11-02T00:08:25.612Z,7.39
2018-11-02T00:08:29.959Z,7.39
2018-11-02T00:08:34.312Z,7.39
2018-11-02T00:08:38.674Z,7.39
2018-11-02T00:08:42.779Z,7.4
2018-11-02T00:08:47.224Z,7.39
2018-11-02T00:08:52.234Z,7.4
2018-11-02T00:08:56.582Z,7.4
2018-11-02T00:09:00.809Z,7.4
2018-11-02T00:09:05.056Z,7.4
2018-11-02T00:09:09.187Z,7.42
2018-11-02T00:09:13.415Z,7.42
2018-11-02T00:09:17.743Z,7.41
2018-11-02T00:09:21.867Z,7.43
2018-11-02T00:09:26.206Z,7.43
2018-11-02T00:09:30.222Z,7.42
2018-11-02T00:09:34.594Z,7.43
2018-11-02T00:09:38.818Z,7.42
2018-11-02T00:09:43.202Z,7.43
2018-11-02T00:09:47.559Z,7.42
2018-11-02T00:09:51.961Z,7.44
2018-11-02T00:09:57.514Z,7.44
2018-11-02T00:10:01.406Z,7.45
2018-11-02T00:10:05.309Z,7.45
2018-11-02T00:10:09.487Z,7.44
2018-11-02T00:10:13.728Z,7.45
2018-11-02T00:10:18.072Z,7.46
2018-11-02T00:10:22.204Z,7.46
2018-11-02T00:10:26.544Z,7.46
2018-11-02T00:10:30.764Z,7.47
2018-11-02T00:10:35.026Z,7.47
2018-11-02T00:10:39.266Z,7.46
2018-11-02T00:10:43.613Z,7.47
2018-11-02T00:10:47.844Z,7.47
2018-11-02T00:10:52.197Z,7.47
2018-11-02T00:10:56.432Z,7.47
2018-11-02T00:11:00.933Z,7.48
2018-11-02T00:11:05.562Z,7.48
2018-11-02T00:11:09.690Z,7.5
2018-11-02T00:11:14.095Z,7.5
2018-11-02T00:11:18.290Z,7.49
2018-11-02T00:11:22.673Z,7.5
2018-11-02T00:11:26.926Z,7.5
2018-11-02T00:11:31.153Z,7.5
2018-11-02T00:11:35.395Z,7.49
2018-11-02T00:11:39.656Z,7.5
2018-11-02T00:11:43.999Z,7.5
2018-11-02T00:11:48.358Z,7.52
2018-11-02T00:11:52.486Z,7.52
2018-11-02T00:11:56.722Z,7.52
2018-11-02T00:12:00.988Z,7.52
2018-11-02T00:12:05.636Z,7.53
2018-11-02T00:12:10.593Z,7.53
2018-11-02T00:12:15.281Z,7.54
2018-11-02T00:12:19.760Z,7.54
2018-11-02T00:12:25.215Z,7.54
2018-11-02T00:12:30.226Z,7.55
2018-11-02T00:12:35.628Z,7.54
2018-11-02T00:12:39.747Z,7.55
2018-11-02T00:12:43.973Z,7.55
2018-11-02T00:12:48.238Z,7.56
2018-11-02T00:12:52.576Z,7.56
2018-11-02T00:12:56.804Z,7.56
2018-11-02T00:13:01.150Z,7.57
2018-11-02T00:13:05.387Z,7.58
2018-11-02T00:13:09.742Z,7.57
2018-11-02T00:13:14.568Z,7.58
2018-11-02T00:13:19.259Z,7.59
2018-11-02T00:13:23.371Z,7.59
2018-11-02T00:13:27.618Z,7.59
2018-11-02T00:13:31.992Z,7.59
2018-11-02T00:13:36.115Z,7.6
2018-11-02T00:13:40.276Z,7.6
2018-11-02T00:13:44.628Z,7.61
2018-11-02T00:13:48.865Z,7.61
2018-11-02T00:13:53.103Z,7.6
2018-11-02T00:13:57.490Z,7.61
2018-11-02T00:14:01.716Z,7.61
2018-11-02T00:14:05.721Z,7.62
2018-11-02T00:14:09.722Z,7.62
2018-11-02T00:14:14.062Z,7.62
2018-11-02T00:14:18.189Z,7.62
2018-11-02T00:14:23.187Z,7.63
2018-11-02T00:14:27.317Z,7.63
2018-11-02T00:14:31.423Z,7.63
2018-11-02T00:14:35.598Z,7.63
2018-11-02T00:14:39.970Z,7.64
2018-11-02T00:14:44.124Z,7.64
2018-11-02T00:14:48.422Z,7.65
2018-11-02T00:14:52.684Z,7.65
2018-11-02T00:14:56.814Z,7.65
2018-11-02T00:15:01.063Z,7.65
2018-11-02T00:15:05.307Z,7.65
2018-11-02T00:15:09.365Z,7.66
2018-11-02T00:15:13.725Z,7.67
2018-11-02T00:15:17.844Z,7.67
2018-11-02T00:15:21.966Z,7.68
2018-11-02T00:15:26.792Z,7.67
2018-11-02T00:15:31.539Z,7.67
2018-11-02T00:15:35.883Z,7.68
2018-11-02T00:15:40.121Z,7.68
2018-11-02T00:15:44.232Z,7.68
2018-11-02T00:15:48.483Z,7.68
2018-11-02T00:15:52.822Z,7.69
2018-11-02T00:15:57.095Z,7.69
2018-11-02T00:16:01.460Z,7.7
2018-11-02T00:16:05.482Z,7.7
2018-11-02T00:16:09.756Z,7.7
2018-11-02T00:16:14.000Z,7.7
2018-11-02T00:16:18.373Z,7.7
2018-11-02T00:16:22.640Z,7.71
2018-11-02T00:16:26.765Z,7.71
2018-11-02T00:16:31.106Z,7.71
2018-11-02T00:16:36.505Z,7.71
2018-11-02T00:16:40.743Z,7.72
2018-11-02T00:16:45.107Z,7.72
2018-11-02T00:16:49.335Z,7.72
2018-11-02T00:16:53.581Z,7.73
2018-11-02T00:16:57.933Z,7.73
2018-11-02T00:17:01.936Z,7.73
2018-11-02T00:17:06.186Z,7.74
2018-11-02T00:17:10.532Z,7.74
2018-11-02T00:17:14.888Z,7.73
2018-11-02T00:17:19.122Z,7.74
2018-11-02T00:17:23.391Z,7.74
2018-11-02T00:17:27.639Z,7.74
2018-11-02T00:17:31.652Z,7.74
2018-11-02T00:17:35.904Z,7.74
2018-11-02T00:17:41.122Z,7.75
2018-11-02T00:17:45.791Z,7.74
2018-11-02T00:17:49.908Z,7.75
2018-11-02T00:17:54.038Z,7.76
2018-11-02T00:17:58.424Z,7.75
2018-11-02T00:18:02.655Z,7.75
2018-11-02T00:18:07.061Z,7.76
2018-11-02T00:18:11.292Z,7.76
2018-11-02T00:18:15.664Z,7.76
2018-11-02T00:18:20.007Z,7.77
2018-11-02T00:18:24.421Z,7.77
2018-11-02T00:18:28.569Z,7.77
2018-11-02T00:18:32.687Z,7.78
2018-11-02T00:18:37.025Z,7.78
2018-11-02T00:18:41.377Z,7.78
2018-11-02T00:18:46.125Z,7.78
2018-11-02T00:18:50.862Z,7.79
2018-11-02T00:18:55.095Z,7.78
2018-11-02T00:18:59.500Z,7.79
2018-11-02T00:19:03.844Z,7.79
2018-11-02T00:19:07.987Z,7.79
2018-11-02T00:19:12.245Z,7.79
2018-11-02T00:19:16.586Z,7.79
2018-11-02T00:19:20.938Z,7.8
2018-11-02T00:19:25.236Z,7.8
2018-11-02T00:19:29.581Z,7.81
2018-11-02T00:19:33.920Z,7.8
2018-11-02T00:19:38.164Z,7.8
2018-11-02T00:19:42.357Z,7.81
2018-11-02T00:19:46.624Z,7.8
2018-11-02T00:19:50.947Z,7.81
2018-11-02T00:19:56.106Z,7.81
2018-11-02T00:20:00.470Z,7.82
2018-11-02T00:20:04.897Z,7.82
2018-11-02T00:20:09.133Z,7.82
2018-11-02T00:20:13.368Z,7.82
2018-11-02T00:20:17.486Z,7.82
2018-11-02T00:20:21.382Z,7.82
2018-11-02T00:20:25.502Z,7.82
2018-11-02T00:20:29.722Z,7.82
2018-11-02T00:20:34.073Z,7.83
2018-11-02T00:20:38.211Z,7.82
2018-11-02T00:20:42.581Z,7.82
2018-11-02T00:20:46.719Z,7.83
2018-11-02T00:20:51.064Z,7.83
2018-11-02T00:20:55.289Z,7.83
2018-11-02T00:21:00.576Z,7.83
2018-11-02T00:21:04.762Z,7.84
2018-11-02T00:21:09.188Z,7.83
2018-11-02T00:21:13.305Z,7.83
2018-11-02T00:21:17.581Z,7.83
2018-11-02T00:21:21.699Z,7.84
2018-11-02T00:21:25.820Z,7.84
2018-11-02T00:21:29.832Z,7.84
2018-11-02T00:21:34.179Z,7.85
2018-11-02T00:21:38.356Z,7.84
2018-11-02T00:21:42.361Z,7.85
2018-11-02T00:21:46.592Z,7.84
2018-11-02T00:21:50.949Z,7.85
2018-11-02T00:21:55.187Z,7.85
2018-11-02T00:21:59.532Z,7.85
2018-11-02T00:22:04.456Z,7.85
2018-11-02T00:22:09.522Z,7.85
2018-11-02T00:22:13.752Z,7.85
2018-11-02T00:22:18.004Z,7.85
2018-11-02T00:22:22.363Z,7.85
2018-11-02T00:22:26.501Z,7.84
2018-11-02T00:22:30.617Z,7.84
2018-11-02T00:22:34.850Z,7.84
2018-11-02T00:22:39.081Z,7.84
2018-11-02T00:22:43.318Z,7.83
2018-11-02T00:22:47.576Z,7.84
2018-11-02T00:22:51.955Z,7.84
2018-11-02T00:22:56.195Z,7.84
2018-11-02T00:23:00.420Z,7.83
2018-11-02T00:23:04.645Z,7.83
2018-11-02T00:23:08.758Z,7.83
2018-11-02T00:23:14.298Z,7.82
2018-11-02T00:23:18.561Z,7.81
2018-11-02T00:23:22.795Z,7.83
2018-11-02T00:23:26.950Z,7.82
2018-11-02T00:23:31.186Z,7.81
2018-11-02T00:23:35.415Z,7.82
2018-11-02T00:23:39.751Z,7.81
2018-11-02T00:23:43.971Z,7.8
2018-11-02T00:23:48.086Z,7.81
2018-11-02T00:23:52.434Z,7.81
2018-11-02T00:23:56.666Z,7.8
2018-11-02T00:24:01.016Z,7.8
2018-11-02T00:24:05.161Z,7.78
2018-11-02T00:24:09.519Z,7.79
2018-11-02T00:24:13.749Z,7.78
2018-11-02T00:24:18.491Z,7.78
2018-11-02T00:24:23.203Z,7.78
2018-11-02T00:24:27.426Z,7.77
2018-11-02T00:24:31.552Z,7.76
2018-11-02T00:24:35.901Z,7.76
2018-11-02T00:24:39.905Z,7.76
2018-11-02T00:24:44.135Z,7.76
2018-11-02T00:24:48.486Z,7.75
2018-11-02T00:24:52.831Z,7.75
2018-11-02T00:24:57.013Z,7.73
2018-11-02T00:25:01.147Z,7.74
2018-11-02T00:25:05.417Z,7.74
2018-11-02T00:25:09.766Z,7.73
2018-11-02T00:25:14.004Z,7.72
2018-11-02T00:25:18.119Z,7.72
2018-11-02T00:25:22.125Z,7.72
2018-11-02T00:25:27.155Z,7.71
2018-11-02T00:25:31.400Z,7.7
2018-11-02T00:25:35.642Z,7.7
2018-11-02T00:25:39.979Z,7.7
2018-11-02T00:25:44.311Z,7.69
2018-11-02T00:25:48.579Z,7.69
2018-11-02T00:25:52.814Z,7.68
2018-11-02T00:25:57.056Z,7.67
2018-11-02T00:26:01.288Z,7.67
2018-11-02T00:26:05.412Z,7.66
2018-11-02T00:26:09.541Z,7.66
2018-11-02T00:26:13.777Z,7.65
2018-11-02T00:26:18.108Z,7.64
2018-11-02T00:26:22.344Z,7.65
2018-11-02T00:26:26.569Z,7.64
2018-11-02T00:26:31.128Z,7.64
2018-11-02T00:26:35.774Z,7.64
2018-11-02T00:26:39.923Z,7.64
2018-11-02T00:26:44.198Z,7.62
2018-11-02T00:26:48.425Z,7.63
2018-11-02T00:26:52.662Z,7.63
2018-11-02T00:26:56.901Z,7.62
2018-11-02T00:27:01.021Z,7.62
2018-11-02T00:27:05.611Z,7.61
2018-11-02T00:27:09.849Z,7.61
2018-11-02T00:27:14.206Z,7.6
2018-11-02T00:27:18.543Z,7.6
2018-11-02T00:27:22.885Z,7.6
2018-11-02T00:27:27.107Z,7.58
2018-11-02T00:27:31.453Z,7.58
2018-11-02T00:27:36.080Z,7.58
2018-11-02T00:27:41.202Z,7.58
2018-11-02T00:27:45.328Z,7.56
2018-11-02T00:27:49.560Z,7.57
2018-11-02T00:27:53.985Z,7.55
2018-11-02T00:27:58.268Z,7.55
2018-11-02T00:28:02.552Z,7.55
2018-11-02T00:28:06.905Z,7.55
2018-11-02T00:28:11.166Z,7.54
2018-11-02T00:28:15.284Z,7.53
2018-11-02T00:28:19.536Z,7.53
2018-11-02T00:28:23.665Z,7.53
2018-11-02T00:28:27.706Z,7.53
2018-11-02T00:28:32.062Z,7.52
2018-11-02T00:28:36.195Z,7.52
2018-11-02T00:28:40.316Z,7.51
2018-11-02T00:28:45.415Z,7.51
2018-11-02T00:28:49.803Z,7.5
2018-11-02T00:28:54.041Z,7.5
2018-11-02T00:28:58.382Z,7.5
2018-11-02T00:29:02.401Z,7.48
2018-11-02T00:29:06.637Z,7.48
2018-11-02T00:29:10.660Z,7.48
2018-11-02T00:29:14.928Z,7.47
2018-11-02T00:29:19.277Z,7.47
2018-11-02T00:29:23.511Z,7.46
2018-11-02T00:29:27.842Z,7.45
2018-11-02T00:29:32.010Z,7.46
2018-11-02T00:29:36.362Z,7.45
2018-11-02T00:29:40.620Z,7.46
2018-11-02T00:29:44.968Z,7.45
2018-11-02T00:29:49.588Z,7.44
2018-11-02T00:29:54.513Z,7.43
2018-11-02T00:29:58.860Z,7.43
2018-11-02T00:30:03.253Z,7.43
2018-11-02T00:30:07.561Z,7.42
2018-11-02T00:30:11.903Z,7.42
2018-11-02T00:30:16.142Z,7.42
2018-11-02T00:30:20.256Z,7.41
2018-11-02T00:30:24.275Z,7.41
2018-11-02T00:30:28.699Z,7.4
2018-11-02T00:30:32.818Z,7.4
2018-11-02T00:30:37.053Z,7.39
2018-11-02T00:30:41.192Z,7.38
2018-11-02T00:30:45.549Z,7.39
2018-11-02T00:30:49.667Z,7.38
2018-11-02T00:30:53.789Z,7.38
2018-11-02T00:30:59.322Z,7.36
2018-11-02T00:31:03.601Z,7.37
2018-11-02T00:31:07.845Z,7.37
2018-11-02T00:31:12.242Z,7.36
2018-11-02T00:31:16.584Z,7.36
2018-11-02T00:31:20.862Z,7.35
2018-11-02T00:31:24.980Z,7.35
2018-11-02T00:31:29.336Z,7.34
2018-11-02T00:31:33.607Z,7.34
2018-11-02T00:31:37.918Z,7.33
2018-11-02T00:31:42.350Z,7.33
2018-11-02T00:31:46.944Z,7.33
2018-11-02T00:31:52.260Z,7.32
2018-11-02T00:31:57.511Z,7.32
2018-11-02T00:32:03.337Z,7.32
2018-11-02T00:32:09.037Z,7.31
2018-11-02T00:32:13.299Z,7.3
2018-11-02T00:32:17.534Z,7.3
2018-11-02T00:32:21.891Z,7.29
2018-11-02T00:32:26.016Z,7.3
2018-11-02T00:32:30.366Z,7.3
2018-11-02T00:32:34.607Z,7.29
2018-11-02T00:32:38.724Z,7.3
2018-11-02T00:32:42.945Z,7.29
2018-11-02T00:32:47.327Z,7.29
2018-11-02T00:32:51.677Z,7.28
2018-11-02T00:32:56.029Z,7.27
2018-11-02T00:33:00.406Z,7.26
2018-11-02T00:33:04.944Z,7.27
2018-11-02T00:33:09.335Z,7.27
2018-11-02T00:33:14.282Z,7.26
2018-11-02T00:33:18.620Z,7.26
2018-11-02T00:33:22.962Z,7.25
2018-11-02T00:33:27.186Z,7.25
2018-11-02T00:33:31.321Z,7.25
2018-11-02T00:33:35.456Z,7.25
2018-11-02T00:33:39.684Z,7.24
2018-11-02T00:33:44.033Z,7.24
2018-11-02T00:33:48.153Z,7.25
2018-11-02T00:33:52.286Z,7.24
2018-11-02T00:33:56.508Z,7.23
2018-11-02T00:34:00.727Z,7.23
2018-11-02T00:34:04.666Z,7.22
2018-11-02T00:34:08.572Z,7.23
2018-11-02T00:34:12.816Z,7.21
2018-11-02T00:34:17.692Z,7.22
2018-11-02T00:34:22.604Z,7.22
2018-11-02T00:34:26.844Z,7.21
2018-11-02T00:34:31.199Z,7.21
2018-11-02T00:34:35.541Z,7.21
2018-11-02T00:34:39.664Z,7.2
2018-11-02T00:34:43.896Z,7.21
2018-11-02T00:34:48.243Z,7.21
2018-11-02T00:34:52.589Z,7.21
2018-11-02T00:34:56.837Z,7.2
2018-11-02T00:35:00.944Z,7.2
2018-11-02T00:35:05.065Z,7.19
2018-11-02T00:35:09.339Z,7.19
2018-11-02T00:35:13.524Z,7.19
2018-11-02T00:35:17.537Z,7.18
2018-11-02T00:35:22.064Z,7.19
2018-11-02T00:35:27.065Z,7.18
2018-11-02T00:35:31.396Z,7.18
2018-11-02T00:35:35.651Z,7.18
2018-11-02T00:35:39.990Z,7.18
2018-11-02T00:35:44.222Z,7.18
2018-11-02T00:35:48.583Z,7.16
2018-11-02T00:35:52.752Z,7.17
2018-11-02T00:35:57.008Z,7.17
2018-11-02T00:36:01.244Z,7.16
2018-11-02T00:36:05.666Z,7.16
2018-11-02T00:36:09.669Z,7.16
2018-11-02T00:36:13.893Z,7.16
2018-11-02T00:36:18.163Z,7.16
2018-11-02T00:36:22.540Z,7.16
2018-11-02T00:36:26.893Z,7.17
2018-11-02T00:36:32.631Z,7.16
2018-11-02T00:36:36.777Z,7.16
2018-11-02T00:36:41.110Z,7.16
2018-11-02T00:36:45.452Z,7.16
2018-11-02T00:36:49.709Z,7.15
2018-11-02T00:36:53.821Z,7.16
2018-11-02T00:36:58.164Z,7.16
2018-11-02T00:37:02.507Z,7.15
2018-11-02T00:37:06.423Z,7.16
2018-11-02T00:37:10.669Z,7.16
2018-11-02T00:37:14.704Z,7.16
2018-11-02T00:37:18.832Z,7.16
2018-11-02T00:37:22.936Z,7.16
2018-11-02T00:37:27.164Z,7.16
2018-11-02T00:37:31.422Z,7.16
2018-11-02T00:37:36.237Z,7.16
2018-11-02T00:37:40.985Z,7.16
2018-11-02T00:37:45.210Z,7.16
2018-11-02T00:37:49.553Z,7.16
2018-11-02T00:37:53.835Z,7.17
2018-11-02T00:37:58.054Z,7.17
2018-11-02T00:38:02.273Z,7.17
2018-11-02T00:38:06.541Z,7.17
2018-11-02T00:38:10.934Z,7.17
2018-11-02T00:38:15.179Z,7.16
2018-11-02T00:38:19.405Z,7.17
2018-11-02T00:38:23.694Z,7.17
2018-11-02T00:38:27.810Z,7.16
2018-11-02T00:38:32.088Z,7.16
2018-11-02T00:38:36.321Z,7.17
2018-11-02T00:38:40.931Z,7.16
2018-11-02T00:38:45.944Z,7.16
2018-11-02T00:38:50.311Z,7.15
2018-11-02T00:38:54.537Z,7.16
2018-11-02T00:38:58.767Z,7.16
2018-11-02T00:39:03.136Z,7.16
2018-11-02T00:39:07.479Z,7.16
2018-11-02T00:39:11.597Z,7.15
2018-11-02T00:39:15.836Z,7.16
2018-11-02T00:39:20.078Z,7.15
2018-11-02T00:39:24.085Z,7.16
2018-11-02T00:39:28.318Z,7.15
2018-11-02T00:39:32.434Z,7.16
2018-11-02T00:39:36.783Z,7.16
2018-11-02T00:39:41.024Z,7.16
2018-11-02T00:39:45.031Z,7.16
2018-11-02T00:39:50.841Z,7.16
2018-11-02T00:39:55.002Z,7.16
2018-11-02T00:39:59.231Z,7.16
2018-11-02T00:40:03.470Z,7.16
2018-11-02T00:40:07.506Z,7.16
2018-11-02T00:40:11.780Z,7.17
2018-11-02T00:40:15.892Z,7.17
2018-11-02T00:40:20.020Z,7.17
2018-11-02T00:40:24.361Z,7.17
2018-11-02T00:40:28.751Z,7.17
2018-11-02T00:40:32.977Z,7.18
2018-11-02T00:40:37.330Z,7.17
2018-11-02T00:40:41.678Z,7.16
2018-11-02T00:40:45.950Z,7.17
2018-11-02T00:40:50.309Z,7.18
2018-11-02T00:40:55.251Z,7.18
2018-11-02T00:40:59.723Z,7.19
2018-11-02T00:41:03.720Z,7.19
2018-11-02T00:41:08.062Z,7.19
2018-11-02T00:41:12.401Z,7.19
2018-11-02T00:41:16.624Z,7.19
2018-11-02T00:41:20.980Z,7.2
2018-11-02T00:41:25.104Z,7.21
2018-11-02T00:41:29.463Z,7.21
2018-11-02T00:41:33.836Z,7.21
2018-11-02T00:41:38.069Z,7.22
2018-11-02T00:41:42.423Z,7.21
2018-11-02T00:41:46.703Z,7.22
2018-11-02T00:41:50.977Z,7.22
2018-11-02T00:41:55.328Z,7.23
2018-11-02T00:41:59.590Z,7.23
2018-11-02T00:42:04.710Z,7.23
2018-11-02T00:42:08.839Z,7.23
2018-11-02T00:42:13.079Z,7.23
2018-11-02T00:42:17.370Z,7.25
2018-11-02T00:42:21.723Z,7.24
2018-11-02T00:42:25.844Z,7.25
2018-11-02T00:42:30.115Z,7.25
2018-11-02T00:42:34.465Z,7.25
2018-11-02T00:42:38.626Z,7.25
2018-11-02T00:42:42.869Z,7.26
2018-11-02T00:42:47.090Z,7.25
2018-11-02T00:42:51.215Z,7.25
2018-11-02T00:42:55.217Z,7.26
2018-11-02T00:42:59.644Z,7.26
2018-11-02T00:43:03.990Z,7.27
2018-11-02T00:43:09.170Z,7.27
2018-11-02T00:43:13.683Z,7.28
2018-11-02T00:43:17.809Z,7.28
2018-11-02T00:43:22.032Z,7.28
2018-11-02T00:43:26.261Z,7.29
2018-11-02T00:43:30.381Z,7.27
2018-11-02T00:43:34.683Z,7.3
2018-11-02T00:43:38.948Z,7.29
2018-11-02T00:43:43.208Z,7.3
2018-11-02T00:43:47.832Z,7.29
2018-11-02T00:43:52.410Z,7.3
2018-11-02T00:43:57.124Z,7.31
2018-11-02T00:44:02.008Z,7.31
2018-11-02T00:44:07.028Z,7.32
2018-11-02T00:44:11.802Z,7.31
2018-11-02T00:44:18.662Z,7.32
2018-11-02T00:44:22.827Z,7.32
2018-11-02T00:44:26.943Z,7.32
2018-11-02T00:44:31.203Z,7.34
2018-11-02T00:44:35.567Z,7.33
2018-11-02T00:44:39.717Z,7.34
2018-11-02T00:44:44.055Z,7.34
2018-11-02T00:44:48.265Z,7.33
2018-11-02T00:44:52.603Z,7.34
2018-11-02T00:44:56.738Z,7.35
2018-11-02T00:45:01.081Z,7.35
2018-11-02T00:45:05.349Z,7.35
2018-11-02T00:45:09.573Z,7.35
2018-11-02T00:45:13.810Z,7.36
2018-11-02T00:45:18.241Z,7.36
2018-11-02T00:45:23.722Z,7.36
2018-11-02T00:45:27.963Z,7.37
2018-11-02T00:45:32.305Z,7.37
2018-11-02T00:45:36.554Z,7.38
2018-11-02T00:45:40.800Z,7.38
2018-11-02T00:45:45.025Z,7.39
2018-11-02T00:45:49.152Z,7.39
2018-11-02T00:45:53.499Z,7.39
2018-11-02T00:45:57.746Z,7.39
2018-11-02T00:46:02.082Z,7.4
2018-11-02T00:46:06.200Z,7.4
2018-11-02T00:46:10.436Z,7.4
2018-11-02T00:46:14.562Z,7.41
2018-11-02T00:46:18.917Z,7.42
2018-11-02T00:46:23.151Z,7.41
2018-11-02T00:46:28.304Z,7.42
2018-11-02T00:46:32.767Z,7.42
2018-11-02T00:46:36.879Z,7.43
2018-11-02T00:46:41.119Z,7.43
2018-11-02T00:46:45.128Z,7.44
2018-11-02T00:46:49.499Z,7.44
2018-11-02T00:46:53.904Z,7.44
2018-11-02T00:46:58.132Z,7.45
2018-11-02T00:47:02.491Z,7.46
2018-11-02T00:47:06.499Z,7.47
2018-11-02T00:47:10.610Z,7.47
2018-11-02T00:47:14.948Z,7.47
2018-11-02T00:47:18.847Z,7.48
2018-11-02T00:47:22.968Z,7.47
2018-11-02T00:47:27.322Z,7.48
2018-11-02T00:47:32.121Z,7.48
2018-11-02T00:47:37.615Z,7.49
2018-11-02T00:47:42.017Z,7.5
2018-11-02T00:47:46.363Z,7.5
2018-11-02T00:47:50.371Z,7.51
2018-11-02T00:47:54.737Z,7.51
2018-11-02T00:47:59.023Z,7.51
2018-11-02T00:48:03.028Z,7.52
2018-11-02T00:48:07.291Z,7.53
2018-11-02T00:48:11.635Z,7.53
2018-11-02T00:48:15.883Z,7.54
2018-11-02T00:48:20.003Z,7.54
2018-11-02T00:48:24.369Z,7.55
2018-11-02T00:48:28.653Z,7.55
2018-11-02T00:48:32.995Z,7.56
2018-11-02T00:48:37.227Z,7.56
2018-11-02T00:48:42.094Z,7.57
2018-11-02T00:48:46.430Z,7.58
2018-11-02T00:48:50.469Z,7.58
2018-11-02T00:48:54.700Z,7.59
2018-11-02T00:48:58.919Z,7.59
2018-11-02T00:49:03.047Z,7.6
2018-11-02T00:49:07.291Z,7.61
2018-11-02T00:49:11.519Z,7.61
2018-11-02T00:49:15.756Z,7.61
2018-11-02T00:49:20.122Z,7.62
2018-11-02T00:49:24.379Z,7.63
2018-11-02T00:49:28.280Z,7.63
2018-11-02T00:49:32.473Z,7.63
2018-11-02T00:49:36.860Z,7.64
2018-11-02T00:49:40.974Z,7.65
2018-11-02T00:49:45.689Z,7.64
2018-11-02T00:49:50.510Z,7.66
2018-11-02T00:49:54.774Z,7.66
2018-11-02T00:49:58.789Z,7.65
2018-11-02T00:50:03.013Z,7.66
2018-11-02T00:50:07.029Z,7.67
2018-11-02T00:50:11.267Z,7.68
2018-11-02T00:50:15.589Z,7.68
2018-11-02T00:50:19.817Z,7.68
2018-11-02T00:50:24.053Z,7.7
2018-11-02T00:50:28.164Z,7.7
2018-11-02T00:50:32.386Z,7.7
2018-11-02T00:50:36.744Z,7.7
2018-11-02T00:50:40.982Z,7.71
2018-11-02T00:50:45.368Z,7.72
2018-11-02T00:50:49.521Z,7.72
2018-11-02T00:50:54.974Z,7.73
2018-11-02T00:50:59.353Z,7.74
2018-11-02T00:51:03.693Z,7.74
2018-11-02T00:51:08.012Z,7.73
2018-11-02T00:51:12.365Z,7.75
2018-11-02T00:51:16.697Z,7.74
2018-11-02T00:51:20.843Z,7.75
2018-11-02T00:51:24.861Z,7.76
2018-11-02T00:51:28.866Z,7.76
2018-11-02T00:51:33.102Z,7.77
2018-11-02T00:51:37.338Z,7.77
2018-11-02T00:51:41.577Z,7.77
2018-11-02T00:51:45.800Z,7.78
2018-11-02T00:51:49.907Z,7.78
2018-11-02T00:51:54.247Z,7.78
2018-11-02T00:51:59.354Z,7.79
2018-11-02T00:52:04.358Z,7.8
2018-11-02T00:52:08.611Z,7.79
2018-11-02T00:52:12.616Z,7.79
2018-11-02T00:52:16.995Z,7.81
2018-11-02T00:52:21.228Z,7.8
2018-11-02T00:52:25.297Z,7.82
2018-11-02T00:52:29.639Z,7.81
2018-11-02T00:52:33.870Z,7.82
2018-11-02T00:52:38.092Z,7.82
2018-11-02T00:52:42.204Z,7.83
2018-11-02T00:52:46.575Z,7.83
2018-11-02T00:52:50.832Z,7.84
2018-11-02T00:52:55.164Z,7.84
2018-11-02T00:52:59.268Z,7.85
2018-11-02T00:53:03.608Z,7.85
2018-11-02T00:53:09.234Z,7.85
2018-11-02T00:53:13.625Z,7.87
2018-11-02T00:53:18.571Z,7.87
2018-11-02T00:53:22.575Z,7.87
2018-11-02T00:53:26.728Z,7.87
2018-11-02T00:53:31.121Z,7.87
2018-11-02T00:53:35.351Z,7.87
2018-11-02T00:53:39.461Z,7.86
2018-11-02T00:53:43.892Z,7.88
2018-11-02T00:53:48.291Z,7.87
2018-11-02T00:53:52.539Z,7.88
2018-11-02T00:53:56.648Z,7.89
2018-11-02T00:54:00.662Z,7.88
2018-11-02T00:54:04.946Z,7.88
2018-11-02T00:54:09.224Z,7.88
2018-11-02T00:54:14.879Z,7.88
2018-11-02T00:54:19.283Z,7.88
2018-11-02T00:54:23.681Z,7.89
2018-11-02T00:54:27.638Z,7.89
2018-11-02T00:54:31.869Z,7.88
2018-11-02T00:54:36.228Z,7.9
2018-11-02T00:54:40.579Z,7.9
2018-11-02T00:54:44.882Z,7.91
2018-11-02T00:54:48.998Z,7.9
2018-11-02T00:54:53.226Z,7.91
2018-11-02T00:54:57.574Z,7.9
2018-11-02T00:55:01.806Z,7.91
2018-11-02T00:55:06.282Z,7.9
2018-11-02T00:55:10.983Z,7.91
2018-11-02T00:55:15.235Z,7.92
2018-11-02T00:55:20.400Z,7.92
2018-11-02T00:55:24.824Z,7.92
2018-11-02T00:55:29.162Z,7.91
2018-11-02T00:55:33.345Z,7.92
2018-11-02T00:55:37.574Z,7.92
2018-11-02T00:55:41.819Z,7.92
2018-11-02T00:55:45.955Z,7.93
2018-11-02T00:55:50.395Z,7.92
2018-11-02T00:55:54.755Z,7.92
2018-11-02T00:55:58.893Z,7.91
2018-11-02T00:56:03.342Z,7.92
2018-11-02T00:56:07.370Z,7.92
2018-11-02T00:56:11.786Z,7.92
2018-11-02T00:56:16.166Z,7.93
2018-11-02T00:56:20.535Z,7.93
2018-11-02T00:56:25.770Z,7.92
2018-11-02T00:56:30.491Z,7.92
2018-11-02T00:56:34.880Z,7.93
2018-11-02T00:56:39.215Z,7.92
2018-11-02T00:56:43.439Z,7.93
2018-11-02T00:56:47.560Z,7.92
2018-11-02T00:56:51.892Z,7.92
2018-11-02T00:56:56.230Z,7.92
2018-11-02T00:57:00.574Z,7.92
2018-11-02T00:57:04.688Z,7.92
2018-11-02T00:57:08.815Z,7.92
2018-11-02T00:57:12.809Z,7.92
2018-11-02T00:57:17.149Z,7.91
2018-11-02T00:57:21.484Z,7.91
2018-11-02T00:57:25.705Z,7.91
2018-11-02T00:57:30.394Z,7.91
2018-11-02T00:57:35.194Z,7.92
2018-11-02T00:57:39.331Z,7.91
2018-11-02T00:57:43.681Z,7.9
2018-11-02T00:57:47.802Z,7.91
2018-11-02T00:57:51.940Z,7.9
2018-11-02T00:57:56.290Z,7.91